Time;durP1;ratioP1;P1;durP2;ratioP2;P2;SDS_P1;SDS_P2;PMS_P1;PMS_P2;Temp;Humidity;BMP_temperature;BMP_pressure;BME280_temperature;BME280_humidity;BME280_pressure;Samples;Min_cycle;Max_cycle;Signal;HPM_P1;HPM_P2
2023/05/27 00:01:06;;;;;;;1.92;0.98;;;12.00;99.90;;;;;;4957239;28;20197;-76
2023/05/27 00:03:39;;;;;;;2.75;1.10;;;12.10;99.90;;;;;;4957264;28;20197;-75
2023/05/27 00:06:10;;;;;;;2.63;0.90;;;12.20;99.90;;;;;;4956648;28;20201;-75
2023/05/27 00:08:42;;;;;;;1.88;0.90;;;12.30;99.90;;;;;;4956422;28;20207;-76
2023/05/27 00:11:13;;;;;;;1.58;1.23;;;12.40;99.90;;;;;;4956325;28;20201;-76
2023/05/27 00:13:44;;;;;;;2.10;1.20;;;12.40;99.90;;;;;;4955965;28;20649;-76
2023/05/27 00:16:16;;;;;;;2.33;1.13;;;12.40;99.90;;;;;;4956856;28;20328;-76
2023/05/27 00:18:49;;;;;;;3.55;1.20;;;12.50;99.90;;;;;;4956887;28;20571;-76
2023/05/27 00:21:21;;;;;;;3.70;1.27;;;12.70;99.90;;;;;;4956156;28;20216;-76
2023/05/27 00:23:57;;;;;;;4.22;1.30;;;12.80;99.90;;;;;;4956909;28;20193;-75
2023/05/27 00:26:28;;;;;;;2.90;1.10;;;12.90;99.90;;;;;;4956896;28;20200;-75
2023/05/27 00:28:59;;;;;;;2.42;1.10;;;13.10;99.90;;;;;;4957245;28;20230;-76
2023/05/27 00:31:30;;;;;;;2.10;0.93;;;13.20;99.90;;;;;;4954539;28;20710;-76
2023/05/27 00:34:04;;;;;;;2.33;0.90;;;13.40;99.90;;;;;;4938210;28;20501;-75
2023/05/27 00:36:35;;;;;;;5.50;1.13;;;13.60;99.90;;;;;;4937353;29;20198;-75
2023/05/27 00:39:06;;;;;;;3.17;1.08;;;13.60;99.90;;;;;;4955985;29;20223;-76
2023/05/27 00:41:38;;;;;;;2.80;1.15;;;13.70;99.90;;;;;;4955585;28;20259;-74
2023/05/27 00:44:09;;;;;;;2.88;1.10;;;13.80;99.90;;;;;;4956422;28;20193;-75
2023/05/27 00:46:40;;;;;;;2.05;1.20;;;13.90;99.90;;;;;;4956459;28;20197;-75
2023/05/27 00:49:13;;;;;;;3.42;0.98;;;14.00;99.90;;;;;;4956312;28;20220;-74
2023/05/27 00:51:45;;;;;;;2.75;1.10;;;14.10;99.90;;;;;;4956292;28;20568;-74
2023/05/27 00:54:16;;;;;;;3.75;1.20;;;14.20;99.90;;;;;;4955525;28;20221;-75
2023/05/27 00:56:48;;;;;;;3.15;0.90;;;14.20;99.90;;;;;;4956010;28;20193;-75
2023/05/27 00:59:20;;;;;;;2.33;0.82;;;14.20;99.90;;;;;;4956158;28;20236;-75
2023/05/27 01:01:51;;;;;;;4.68;1.00;;;14.10;99.90;;;;;;4956108;28;20200;-75
2023/05/27 01:04:25;;;;;;;2.22;0.82;;;14.10;99.90;;;;;;4956183;28;20199;-74
2023/05/27 01:07:06;;;;;;;3.15;1.10;;;14.20;99.90;;;;;;4955357;28;20194;-75
2023/05/27 01:09:42;;;;;;;4.57;1.00;;;14.40;99.90;;;;;;4942200;29;20221;-74
2023/05/27 01:12:21;;;;;;;3.88;1.25;;;14.50;99.90;;;;;;4955908;28;20223;-75
2023/05/27 01:14:56;;;;;;;3.13;1.05;;;14.60;99.90;;;;;;4955972;28;20205;-74
2023/05/27 01:17:29;;;;;;;3.05;1.20;;;14.70;99.90;;;;;;4955222;28;20700;-75
2023/05/27 01:20:05;;;;;;;5.43;0.90;;;14.80;99.90;;;;;;4955003;29;20272;-75
2023/05/27 01:22:41;;;;;;;4.15;0.70;;;14.90;99.90;;;;;;4955808;28;20637;-75
2023/05/27 01:25:13;;;;;;;2.40;0.70;;;15.00;99.90;;;;;;4955185;28;20200;-74
2023/05/27 01:27:44;;;;;;;1.65;0.60;;;15.10;99.90;;;;;;4954562;28;20205;-75
2023/05/27 01:30:16;;;;;;;3.00;0.80;;;15.30;99.90;;;;;;4955644;28;20228;-75
2023/05/27 01:32:52;;;;;;;1.95;0.80;;;15.40;99.90;;;;;;4954847;28;21194;-74
2023/05/27 01:35:27;;;;;;;1.73;0.90;;;15.40;99.90;;;;;;4954941;28;20251;-75
2023/05/27 01:38:04;;;;;;;4.32;0.77;;;15.40;99.90;;;;;;4954740;28;20219;-74
2023/05/27 01:40:37;;;;;;;3.00;0.90;;;15.60;99.90;;;;;;4954551;28;20260;-75
2023/05/27 01:43:09;;;;;;;2.20;1.00;;;15.70;99.90;;;;;;4955511;28;20200;-75
2023/05/27 01:45:41;;;;;;;2.55;0.90;;;15.90;99.90;;;;;;4955503;28;20645;-75
2023/05/27 01:48:12;;;;;;;2.60;0.77;;;16.00;99.90;;;;;;4954867;28;20641;-76
2023/05/27 01:50:43;;;;;;;3.25;0.88;;;15.90;99.90;;;;;;4955404;28;20225;-75
2023/05/27 01:53:16;;;;;;;2.13;0.60;;;15.90;99.90;;;;;;4955362;28;20668;-75
2023/05/27 01:55:47;;;;;;;1.95;0.60;;;16.00;99.90;;;;;;4954530;28;20195;-76
2023/05/27 01:58:19;;;;;;;3.25;1.30;;;16.10;99.90;;;;;;4979622;23;20238;-76
2023/05/27 02:00:50;;;;;;;1.90;0.80;;;16.10;99.90;;;;;;5014189;28;20191;-77
2023/05/27 02:03:21;;;;;;;1.27;0.60;;;16.30;99.90;;;;;;5013779;28;20281;-77
2023/05/27 02:05:53;;;;;;;1.98;0.82;;;16.30;99.90;;;;;;5013655;28;20195;-76
2023/05/27 02:08:26;;;;;;;3.63;0.70;;;16.40;99.90;;;;;;5013405;28;20642;-78
2023/05/27 02:10:57;;;;;;;1.92;0.70;;;16.40;99.90;;;;;;5013455;28;20253;-77
2023/05/27 02:13:28;;;;;;;1.27;0.60;;;16.40;99.90;;;;;;5011516;28;20206;-78
2023/05/27 02:15:59;;;;;;;1.88;0.50;;;16.50;99.90;;;;;;5012562;28;20198;-77
2023/05/27 02:18:31;;;;;;;1.73;0.60;;;16.50;99.90;;;;;;5012779;28;20199;-77
2023/05/27 02:21:05;;;;;;;1.85;0.40;;;16.60;99.90;;;;;;5013445;28;20187;-76
2023/05/27 02:23:38;;;;;;;1.73;0.50;;;16.70;99.90;;;;;;5011503;28;20206;-76
2023/05/27 02:26:09;;;;;;;2.28;0.60;;;16.80;99.90;;;;;;5013504;28;20567;-78
2023/05/27 02:28:41;;;;;;;1.50;0.40;;;16.90;99.90;;;;;;5013450;28;20245;-78
2023/05/27 02:31:12;;;;;;;0.82;0.50;;;16.90;99.90;;;;;;5011758;28;20218;-78
2023/05/27 02:33:43;;;;;;;1.27;0.50;;;17.00;99.90;;;;;;5013429;28;20631;-77
2023/05/27 02:36:14;;;;;;;1.83;0.60;;;17.00;99.90;;;;;;5012141;28;20203;-77
2023/05/27 02:38:47;;;;;;;0.65;0.40;;;17.00;99.90;;;;;;5015389;28;20282;-77
2023/05/27 02:41:18;;;;;;;1.73;0.50;;;17.10;99.90;;;;;;5016733;28;20556;-78
2023/05/27 02:43:49;;;;;;;1.60;0.60;;;17.10;99.90;;;;;;5017735;28;20195;-77
2023/05/27 02:46:20;;;;;;;4.00;0.60;;;17.10;99.90;;;;;;5017143;28;20202;-77
2023/05/27 02:48:51;;;;;;;1.45;0.47;;;17.10;99.90;;;;;;5017027;28;20191;-77
2023/05/27 02:51:24;;;;;;;1.95;0.43;;;17.20;99.90;;;;;;5014729;28;20756;-79
2023/05/27 02:53:57;;;;;;;2.13;0.50;;;17.30;99.90;;;;;;5017044;28;20198;-78
2023/05/27 02:56:29;;;;;;;1.60;0.50;;;17.40;99.90;;;;;;5016468;28;20207;-76
2023/05/27 02:59:00;;;;;;;2.05;0.47;;;17.50;99.90;;;;;;5016555;28;20234;-79
2023/05/27 03:01:32;;;;;;;1.20;0.50;;;17.50;99.90;;;;;;5016814;28;20201;-77
2023/05/27 03:04:03;;;;;;;3.42;0.70;;;17.50;99.90;;;;;;5016772;28;20202;-77
2023/05/27 03:06:34;;;;;;;0.82;0.35;;;17.50;99.90;;;;;;5012761;28;20567;-77
2023/05/27 03:09:07;;;;;;;1.27;0.60;;;17.50;99.90;;;;;;5013196;28;20195;-78
2023/05/27 03:11:38;;;;;;;2.08;0.50;;;17.40;99.90;;;;;;5013718;28;20254;-77
2023/05/27 03:14:09;;;;;;;1.40;0.55;;;17.40;99.90;;;;;;4997454;28;20188;-77
2023/05/27 03:16:40;;;;;;;1.77;0.47;;;17.50;99.90;;;;;;5014885;28;20201;-77
2023/05/27 03:19:11;;;;;;;1.13;0.60;;;17.50;99.90;;;;;;5015605;28;20227;-78
2023/05/27 03:21:42;;;;;;;1.35;0.57;;;17.50;99.90;;;;;;4998320;28;20199;-76
2023/05/27 03:24:16;;;;;;;1.75;0.60;;;17.60;99.90;;;;;;5009570;28;20290;-78
2023/05/27 03:26:47;;;;;;;2.03;0.60;;;17.60;99.90;;;;;;5012048;28;20203;-80
2023/05/27 03:29:18;;;;;;;0.73;0.60;;;17.60;99.90;;;;;;5007821;28;20199;-76
2023/05/27 03:31:49;;;;;;;1.60;0.70;;;17.60;99.90;;;;;;5013468;28;20685;-77
2023/05/27 03:34:20;;;;;;;1.88;1.20;;;17.60;99.90;;;;;;5012485;28;20553;-79
2023/05/27 03:36:51;;;;;;;0.95;0.60;;;17.70;99.90;;;;;;5015316;28;20190;-77
2023/05/27 03:39:24;;;;;;;3.38;0.70;;;17.70;99.90;;;;;;5011638;28;20214;-80
2023/05/27 03:41:55;;;;;;;1.50;0.55;;;17.50;99.90;;;;;;5012941;28;20203;-81
2023/05/27 03:44:26;;;;;;;1.30;0.50;;;17.50;99.90;;;;;;5013674;28;20542;-77
2023/05/27 03:46:58;;;;;;;0.95;0.50;;;17.60;99.90;;;;;;5001452;28;20214;-78
2023/05/27 03:49:29;;;;;;;1.40;0.60;;;17.70;99.90;;;;;;5013154;28;20650;-78
2023/05/27 03:52:00;;;;;;;1.27;0.47;;;17.60;99.90;;;;;;5014837;28;20583;-81
2023/05/27 03:54:33;;;;;;;2.80;0.70;;;17.40;99.90;;;;;;5013177;28;20206;-82
2023/05/27 03:57:04;;;;;;;2.38;0.60;;;17.40;99.90;;;;;;5011684;28;20225;-82
2023/05/27 03:59:35;;;;;;;1.30;0.57;;;17.50;99.90;;;;;;5014641;28;20606;-80
2023/05/27 04:02:06;;;;;;;0.93;0.50;;;17.50;99.90;;;;;;5008188;28;20215;-83
2023/05/27 04:04:37;;;;;;;1.67;0.68;;;17.50;99.90;;;;;;5001742;28;20197;-78
2023/05/27 04:07:09;;;;;;;1.00;0.60;;;17.50;99.90;;;;;;5013072;28;20199;-80
2023/05/27 04:09:42;;;;;;;0.85;0.40;;;17.60;99.90;;;;;;5014150;28;20218;-78
2023/05/27 04:12:16;;;;;;;2.38;0.45;;;17.70;99.90;;;;;;5012986;28;20234;-78
2023/05/27 04:14:47;;;;;;;1.02;0.50;;;17.70;99.90;;;;;;5013994;28;20206;-78
2023/05/27 04:17:18;;;;;;;1.52;0.50;;;17.70;99.90;;;;;;5014179;28;20203;-78
2023/05/27 04:19:50;;;;;;;2.35;0.50;;;17.60;99.90;;;;;;5014170;28;20198;-81
2023/05/27 04:22:21;;;;;;;5.82;1.00;;;17.60;99.90;;;;;;5007124;28;20207;-79
2023/05/27 04:24:55;;;;;;;0.88;0.50;;;17.60;99.90;;;;;;5013874;28;20198;-78
2023/05/27 04:27:26;;;;;;;1.58;0.50;;;17.60;99.90;;;;;;5013055;28;20221;-79
2023/05/27 04:29:57;;;;;;;1.17;0.60;;;17.60;99.90;;;;;;5012784;28;20222;-79
2023/05/27 04:32:32;;;;;;;1.42;0.50;;;17.60;99.90;;;;;;5013090;28;20286;-79
2023/05/27 04:35:03;;;;;;;2.10;0.50;;;17.60;99.90;;;;;;5012624;28;20238;-78
2023/05/27 04:37:35;;;;;;;1.05;0.50;;;17.60;99.90;;;;;;5010664;28;20209;-78
2023/05/27 04:40:10;;;;;;;1.05;0.60;;;17.60;99.90;;;;;;5013493;28;20194;-78
2023/05/27 04:42:44;;;;;;;1.33;0.30;;;17.70;99.90;;;;;;5013967;28;20198;-78
2023/05/27 04:45:18;;;;;;;2.17;0.50;;;17.70;99.90;;;;;;5013672;28;20202;-78
2023/05/27 04:47:49;;;;;;;2.15;0.60;;;17.70;99.90;;;;;;5014317;28;20197;-79
2023/05/27 04:50:21;;;;;;;1.58;0.50;;;17.70;99.90;;;;;;5012433;28;20222;-81
2023/05/27 04:52:52;;;;;;;1.00;0.50;;;17.70;99.90;;;;;;5010946;28;20194;-78
2023/05/27 04:55:25;;;;;;;2.55;0.80;;;17.80;99.90;;;;;;5013695;28;20199;-79
2023/05/27 04:57:56;;;;;;;0.98;0.60;;;17.80;99.90;;;;;;4999649;28;20242;-78
2023/05/27 05:00:38;;;;;;;1.20;0.60;;;17.80;99.90;;;;;;5011639;28;20203;-79
2023/05/27 05:03:10;;;;;;;0.95;0.52;;;17.70;99.90;;;;;;5000928;28;20199;-80
2023/05/27 05:05:41;;;;;;;1.15;0.57;;;17.70;99.90;;;;;;5012563;28;20195;-79
2023/05/27 05:08:12;;;;;;;3.15;0.70;;;17.70;99.90;;;;;;5010380;28;20195;-78
2023/05/27 05:10:46;;;;;;;0.45;0.45;;;17.80;99.90;;;;;;5009481;28;20866;-79
2023/05/27 05:13:17;;;;;;;0.77;0.50;;;17.70;99.90;;;;;;5012672;28;20214;-80
2023/05/27 05:15:48;;;;;;;0.50;0.40;;;17.70;99.90;;;;;;5012851;28;20195;-81
2023/05/27 05:18:19;;;;;;;0.77;0.50;;;17.60;99.90;;;;;;5013022;28;20199;-80
2023/05/27 05:20:50;;;;;;;2.80;0.43;;;17.50;99.90;;;;;;5012235;28;20207;-79
2023/05/27 05:23:21;;;;;;;1.55;0.43;;;17.40;99.90;;;;;;5010921;28;20199;-79
2023/05/27 05:25:58;;;;;;;0.77;0.50;;;17.40;99.90;;;;;;5011685;28;20209;-79
2023/05/27 05:28:29;;;;;;;0.90;0.40;;;17.30;99.90;;;;;;5009889;28;20595;-79
2023/05/27 05:31:00;;;;;;;1.10;0.47;;;17.30;99.90;;;;;;5011742;28;20221;-79
2023/05/27 05:33:31;;;;;;;2.10;0.70;;;17.20;99.90;;;;;;5007252;28;20222;-79
2023/05/27 05:36:02;;;;;;;1.50;0.50;;;17.00;99.90;;;;;;5009347;28;20199;-80
2023/05/27 05:38:33;;;;;;;1.42;0.60;;;17.00;99.90;;;;;;5011405;28;20262;-80
2023/05/27 05:41:06;;;;;;;1.10;0.50;;;16.90;99.90;;;;;;5010805;28;20199;-79
2023/05/27 05:43:38;;;;;;;1.50;0.50;;;16.80;99.90;;;;;;5012985;28;20202;-79
2023/05/27 05:46:09;;;;;;;0.35;0.32;;;16.70;99.90;;;;;;5012695;28;20199;-80
2023/05/27 05:48:40;;;;;;;0.93;0.50;;;16.60;99.90;;;;;;5009648;28;20655;-80
2023/05/27 05:51:11;;;;;;;0.75;0.55;;;16.60;99.90;;;;;;5012610;28;20211;-81
2023/05/27 05:53:42;;;;;;;1.20;0.60;;;16.60;99.90;;;;;;5012595;28;20206;-80
2023/05/27 05:56:15;;;;;;;0.80;0.50;;;16.50;99.90;;;;;;5012729;28;20282;-78
2023/05/27 05:58:47;;;;;;;1.48;0.80;;;16.40;99.90;;;;;;5012465;28;20238;-79
2023/05/27 06:01:18;;;;;;;1.15;0.40;;;16.40;99.90;;;;;;5008867;28;20213;-80
2023/05/27 06:03:49;;;;;;;0.68;0.50;;;16.30;99.90;;;;;;5004580;28;20244;-80
2023/05/27 06:06:21;;;;;;;0.75;0.40;;;16.20;99.90;;;;;;5012653;28;20199;-80
2023/05/27 06:08:52;;;;;;;0.88;0.52;;;16.20;99.90;;;;;;5012768;28;20209;-81
2023/05/27 06:11:26;;;;;;;1.35;0.63;;;16.20;99.90;;;;;;5012452;28;20896;-80
2023/05/27 06:13:57;;;;;;;1.10;0.50;;;16.10;99.90;;;;;;5019182;28;20253;-79
2023/05/27 06:16:28;;;;;;;2.47;0.70;;;15.90;99.90;;;;;;5016158;28;20273;-79
2023/05/27 06:18:59;;;;;;;0.60;0.60;;;15.90;99.90;;;;;;5016775;28;20195;-80
2023/05/27 06:21:32;;;;;;;2.22;0.50;;;15.80;99.90;;;;;;5019629;28;20221;-79
2023/05/27 06:24:03;;;;;;;1.13;0.63;;;15.70;99.90;;;;;;5017169;28;20265;-79
2023/05/27 06:26:36;;;;;;;0.98;0.63;;;15.60;99.90;;;;;;5018468;28;20198;-79
2023/05/27 06:29:07;;;;;;;1.15;0.50;;;15.60;99.90;;;;;;5018612;28;20202;-80
2023/05/27 06:31:38;;;;;;;1.23;0.70;;;15.50;99.90;;;;;;5018555;28;20232;-79
2023/05/27 06:34:10;;;;;;;3.03;0.93;;;15.50;99.90;;;;;;5018186;28;20195;-82
2023/05/27 06:36:41;;;;;;;1.52;0.70;;;15.30;99.90;;;;;;5019823;28;20209;-81
2023/05/27 06:39:12;;;;;;;1.35;0.60;;;15.20;99.90;;;;;;5018501;28;20610;-79
2023/05/27 06:41:48;;;;;;;0.85;0.80;;;15.10;99.90;;;;;;5019571;28;20203;-78
2023/05/27 06:44:19;;;;;;;1.40;0.90;;;15.00;99.90;;;;;;5016910;28;20198;-80
2023/05/27 06:46:51;;;;;;;1.88;1.20;;;15.00;99.90;;;;;;5007069;28;20195;-80
2023/05/27 06:49:22;;;;;;;0.93;0.93;;;14.90;99.90;;;;;;5018529;28;20289;-80
2023/05/27 06:51:53;;;;;;;1.42;0.88;;;14.80;99.90;;;;;;5019536;28;20579;-80
2023/05/27 06:54:24;;;;;;;3.05;1.02;;;14.80;99.90;;;;;;5018495;28;20222;-79
2023/05/27 06:56:58;;;;;;;1.67;0.82;;;14.80;99.90;;;;;;5019528;28;20198;-81
2023/05/27 06:59:29;;;;;;;2.10;0.82;;;14.70;99.90;;;;;;5017304;28;20252;-79
2023/05/27 07:02:00;;;;;;;1.48;0.77;;;14.70;99.90;;;;;;5018415;28;20205;-84
2023/05/27 07:04:31;;;;;;;1.60;0.70;;;14.60;99.90;;;;;;5013899;28;20190;-79
2023/05/27 07:07:02;;;;;;;1.35;0.52;;;14.60;99.90;;;;;;5015464;28;20596;-78
2023/05/27 07:09:34;;;;;;;1.00;0.70;;;14.50;99.90;;;;;;5014346;28;20203;-80
2023/05/27 07:12:08;;;;;;;0.50;0.50;;;14.40;99.90;;;;;;5018319;28;20214;-80
2023/05/27 07:14:39;;;;;;;1.83;0.70;;;14.40;99.90;;;;;;5017833;28;20190;-79
2023/05/27 07:17:10;;;;;;;0.60;0.60;;;14.30;99.90;;;;;;5018649;28;20199;-79
2023/05/27 07:19:41;;;;;;;1.27;0.68;;;14.30;99.90;;;;;;5018063;28;20191;-77
2023/05/27 07:22:13;;;;;;;0.82;0.55;;;14.20;99.90;;;;;;5017296;28;20210;-79
2023/05/27 07:24:44;;;;;;;1.02;0.75;;;14.20;99.90;;;;;;5013659;28;20217;-78
2023/05/27 07:27:17;;;;;;;0.73;0.60;;;14.10;99.90;;;;;;5015092;28;20202;-78
2023/05/27 07:29:48;;;;;;;1.50;0.80;;;14.10;99.90;;;;;;5016062;28;20207;-81
2023/05/27 07:32:19;;;;;;;1.83;0.70;;;14.00;99.90;;;;;;5015827;28;20223;-79
2023/05/27 07:34:53;;;;;;;2.17;0.93;;;14.00;99.90;;;;;;5015652;28;20597;-79
2023/05/27 07:37:25;;;;;;;1.52;0.70;;;13.90;99.90;;;;;;5012547;28;20199;-79
2023/05/27 07:39:57;;;;;;;2.25;0.95;;;13.80;99.90;;;;;;5012790;28;20195;-78
2023/05/27 07:42:30;;;;;;;1.20;0.80;;;13.80;99.90;;;;;;5012607;28;20225;-78
2023/05/27 07:45:01;;;;;;;2.33;1.27;;;13.80;99.90;;;;;;5012602;28;20195;-78
2023/05/27 07:47:32;;;;;;;1.20;1.00;;;13.70;99.90;;;;;;5013673;28;20195;-78
2023/05/27 07:50:03;;;;;;;2.28;1.10;;;13.60;99.90;;;;;;5015615;28;20202;-78
2023/05/27 07:52:34;;;;;;;2.78;0.98;;;13.60;99.90;;;;;;5013475;28;20559;-78
2023/05/27 07:55:05;;;;;;;2.42;0.90;;;13.60;99.90;;;;;;5014627;28;20647;-77
2023/05/27 07:57:40;;;;;;;2.85;0.90;;;13.50;99.90;;;;;;5025671;23;20210;-74
2023/05/27 08:00:12;;;;;;;1.63;1.02;;;13.50;99.90;;;;;;4992776;28;20222;-75
2023/05/27 08:02:44;;;;;;;1.70;1.20;;;13.40;99.90;;;;;;4999697;28;20662;-74
2023/05/27 08:05:15;;;;;;;4.07;2.30;;;13.40;99.90;;;;;;5001419;28;20203;-74
2023/05/27 08:07:46;;;;;;;1.65;1.40;;;13.30;99.90;;;;;;5007473;28;20206;-74
2023/05/27 08:10:18;;;;;;;5.70;1.80;;;13.30;99.90;;;;;;5008023;28;20574;-75
2023/05/27 08:12:51;;;;;;;2.95;1.90;;;13.30;99.90;;;;;;5007391;28;20574;-74
2023/05/27 08:15:22;;;;;;;2.22;1.50;;;13.20;99.90;;;;;;4998321;28;20202;-74
2023/05/27 08:17:53;;;;;;;2.60;1.67;;;13.20;99.90;;;;;;5009520;28;20203;-75
2023/05/27 08:20:25;;;;;;;3.35;1.73;;;13.10;99.90;;;;;;4998942;28;20678;-75
2023/05/27 08:22:56;;;;;;;1.52;1.20;;;13.10;99.90;;;;;;4993233;28;20212;-74
2023/05/27 08:25:27;;;;;;;2.38;1.40;;;13.10;99.90;;;;;;4994055;28;20669;-74
2023/05/27 08:28:01;;;;;;;3.33;1.20;;;13.00;99.90;;;;;;4994684;28;20221;-74
2023/05/27 08:30:32;;;;;;;2.10;1.40;;;13.00;99.90;;;;;;4993567;28;20207;-74
2023/05/27 08:33:03;;;;;;;2.70;1.15;;;13.00;99.90;;;;;;4994704;28;20570;-74
2023/05/27 08:35:35;;;;;;;1.55;1.23;;;12.90;99.90;;;;;;4995499;28;20203;-74
2023/05/27 08:38:06;;;;;;;2.38;1.40;;;12.90;99.90;;;;;;4994469;28;20254;-75
2023/05/27 08:40:38;;;;;;;2.67;1.10;;;12.90;99.90;;;;;;4991686;28;20207;-74
2023/05/27 08:43:11;;;;;;;3.08;1.13;;;12.80;99.90;;;;;;4998799;28;20226;-75
2023/05/27 08:45:43;;;;;;;2.85;1.38;;;12.80;99.90;;;;;;5008149;28;20548;-74
2023/05/27 08:48:14;;;;;;;2.47;1.40;;;12.70;99.90;;;;;;5004771;28;20246;-75
2023/05/27 08:50:46;;;;;;;2.15;1.52;;;12.70;99.90;;;;;;5003193;28;20207;-77
2023/05/27 08:53:20;;;;;;;1.90;1.20;;;12.70;99.90;;;;;;5009765;28;20693;-74
2023/05/27 08:55:53;;;;;;;3.30;1.60;;;12.60;99.90;;;;;;4999062;28;20213;-75
2023/05/27 08:58:27;;;;;;;4.63;1.50;;;12.60;99.90;;;;;;5010551;28;20238;-75
2023/05/27 09:00:58;;;;;;;2.85;1.65;;;12.60;99.90;;;;;;5014157;28;20195;-74
2023/05/27 09:03:30;;;;;;;2.70;1.65;;;12.60;99.90;;;;;;4996466;28;20208;-76
2023/05/27 09:06:03;;;;;;;2.58;1.30;;;12.50;99.90;;;;;;5007190;28;20205;-74
2023/05/27 09:08:34;;;;;;;1.50;1.27;;;12.50;99.90;;;;;;5002878;28;20198;-76
2023/05/27 09:11:07;;;;;;;2.35;1.30;;;12.50;99.90;;;;;;4985537;28;20196;-75
2023/05/27 09:13:40;;;;;;;3.10;1.63;;;12.50;99.90;;;;;;4996646;28;20328;-76
2023/05/27 09:16:12;;;;;;;4.55;2.00;;;12.50;99.90;;;;;;5009257;28;20670;-75
2023/05/27 09:18:45;;;;;;;2.83;1.90;;;12.50;99.90;;;;;;5004601;28;20352;-75
2023/05/27 09:21:17;;;;;;;4.15;2.05;;;12.50;99.90;;;;;;5008097;28;20651;-74
2023/05/27 09:23:48;;;;;;;3.05;1.92;;;12.40;99.90;;;;;;4995993;28;20200;-75
2023/05/27 09:26:19;;;;;;;4.57;2.45;;;12.40;99.90;;;;;;4987862;28;20250;-75
2023/05/27 09:28:52;;;;;;;7.72;2.65;;;12.50;99.90;;;;;;4993309;28;20199;-74
2023/05/27 09:31:25;;;;;;;3.40;2.20;;;12.40;99.90;;;;;;4991926;28;20647;-75
2023/05/27 09:33:56;;;;;;;5.10;3.15;;;12.40;99.90;;;;;;4990011;28;20227;-74
2023/05/27 09:36:27;;;;;;;3.50;2.72;;;12.30;99.90;;;;;;4991794;28;20673;-76
2023/05/27 09:39:01;;;;;;;5.20;2.83;;;12.20;99.90;;;;;;4987999;28;20228;-75
2023/05/27 09:41:32;;;;;;;3.95;2.42;;;12.20;99.90;;;;;;4986459;28;20210;-75
2023/05/27 09:44:07;;;;;;;6.25;2.58;;;12.20;99.90;;;;;;4989876;28;20206;-75
2023/05/27 09:46:38;;;;;;;6.80;2.20;;;12.20;99.90;;;;;;4992744;28;20246;-75
2023/05/27 09:49:10;;;;;;;3.72;2.20;;;12.20;99.90;;;;;;4992905;28;20203;-74
2023/05/27 09:51:42;;;;;;;2.88;2.20;;;12.10;99.90;;;;;;4993667;28;20217;-75
2023/05/27 09:54:20;;;;;;;3.45;2.03;;;12.10;99.90;;;;;;4992904;28;20200;-76
2023/05/27 09:56:51;;;;;;;3.67;1.88;;;12.10;99.90;;;;;;4982529;28;20246;-75
2023/05/27 09:59:25;;;;;;;1.70;1.50;;;12.10;99.90;;;;;;4984981;28;20240;-75
2023/05/27 10:01:57;;;;;;;2.63;1.52;;;12.10;99.90;;;;;;4974900;28;20554;-76
2023/05/27 10:04:30;;;;;;;2.30;1.58;;;12.00;99.90;;;;;;4988427;28;20569;-75
2023/05/27 10:07:02;;;;;;;3.63;1.60;;;12.00;99.90;;;;;;4993903;28;20282;-77
2023/05/27 10:09:33;;;;;;;2.42;1.75;;;12.00;99.90;;;;;;4994008;28;20558;-74
2023/05/27 10:12:04;;;;;;;2.63;1.88;;;12.00;99.90;;;;;;4993121;28;20676;-75
2023/05/27 10:14:38;;;;;;;3.03;2.08;;;11.90;99.90;;;;;;4992850;28;20191;-78
2023/05/27 10:17:09;;;;;;;3.28;1.80;;;11.90;99.90;;;;;;4991981;28;20551;-75
2023/05/27 10:19:40;;;;;;;4.43;2.05;;;11.80;99.90;;;;;;4991384;28;20202;-74
2023/05/27 10:22:15;;;;;;;2.97;1.77;;;11.80;99.90;;;;;;4977913;28;20210;-74
2023/05/27 10:24:50;;;;;;;3.05;1.90;;;11.70;99.90;;;;;;4993303;28;20558;-77
2023/05/27 10:27:21;;;;;;;2.58;1.80;;;11.70;99.90;;;;;;4993175;28;20604;-76
2023/05/27 10:30:03;;;;;;;3.05;1.90;;;11.70;99.90;;;;;;4993664;28;20195;-75
2023/05/27 10:32:44;;;;;;;4.07;1.90;;;11.70;99.90;;;;;;4985184;28;20220;-75
2023/05/27 10:35:15;;;;;;;4.28;2.10;;;11.70;99.90;;;;;;4974732;28;20192;-77
2023/05/27 10:37:48;;;;;;;4.10;2.35;;;11.70;99.90;;;;;;4981658;28;20674;-76
2023/05/27 10:40:28;;;;;;;6.95;3.28;;;11.70;99.90;;;;;;4993658;28;20192;-77
2023/05/27 10:43:05;;;;;;;5.03;3.28;;;11.70;99.90;;;;;;4993638;28;20202;-76
2023/05/27 10:45:38;;;;;;;4.50;3.03;;;11.60;99.90;;;;;;4993685;28;20199;-75
2023/05/27 10:48:19;;;;;;;5.07;2.70;;;11.60;99.90;;;;;;4993664;28;20204;-76
2023/05/27 10:50:59;;;;;;;4.13;2.50;;;11.60;99.90;;;;;;4992120;28;20200;-76
2023/05/27 10:53:31;;;;;;;3.45;2.17;;;11.60;99.90;;;;;;4993475;28;20211;-77
2023/05/27 10:56:03;;;;;;;4.03;2.40;;;11.60;99.90;;;;;;4993774;28;20195;-76
2023/05/27 10:58:37;;;;;;;4.50;2.50;;;11.60;99.90;;;;;;4990903;28;20262;-76
2023/05/27 11:01:14;;;;;;;5.18;2.53;;;11.60;99.90;;;;;;4977784;28;20192;-76
2023/05/27 11:03:49;;;;;;;3.53;2.20;;;11.60;99.90;;;;;;4977769;28;20203;-76
2023/05/27 11:06:20;;;;;;;3.20;2.00;;;11.50;99.90;;;;;;4990095;28;21529;-76
2023/05/27 11:08:51;;;;;;;4.15;2.35;;;11.50;99.90;;;;;;4997377;28;20192;-76
2023/05/27 11:11:23;;;;;;;3.60;1.90;;;11.50;99.90;;;;;;4997337;28;20199;-76
2023/05/27 11:13:54;;;;;;;3.13;2.30;;;11.50;99.90;;;;;;4996964;28;20270;-75
2023/05/27 11:16:28;;;;;;;3.45;2.10;;;11.40;99.90;;;;;;4996993;28;20196;-76
2023/05/27 11:18:59;;;;;;;3.15;2.22;;;11.40;99.90;;;;;;4996911;28;20702;-78
2023/05/27 11:21:30;;;;;;;3.45;2.17;;;11.40;99.90;;;;;;4995338;28;20200;-77
2023/05/27 11:24:02;;;;;;;4.20;2.20;;;11.40;99.90;;;;;;4984526;28;20218;-76
2023/05/27 11:26:33;;;;;;;4.45;2.47;;;11.30;99.90;;;;;;4986666;28;20199;-76
2023/05/27 11:29:05;;;;;;;5.18;2.30;;;11.20;99.90;;;;;;4996659;28;20195;-76
2023/05/27 11:31:40;;;;;;;4.03;2.38;;;11.10;99.90;;;;;;4995865;28;20199;-76
2023/05/27 11:34:18;;;;;;;5.28;3.00;;;11.00;99.90;;;;;;4996439;28;20219;-76
2023/05/27 11:36:51;;;;;;;5.78;3.30;;;10.90;99.90;;;;;;4996715;28;20187;-76
2023/05/27 11:39:22;;;;;;;5.88;3.67;;;10.70;99.90;;;;;;4996554;28;20192;-75
2023/05/27 11:41:55;;;;;;;5.85;3.60;;;10.60;99.90;;;;;;4992994;28;20200;-77
2023/05/27 11:44:27;;;;;;;5.18;3.40;;;10.50;99.90;;;;;;4996844;28;20206;-77
2023/05/27 11:47:04;;;;;;;5.68;3.55;;;10.50;99.90;;;;;;4996459;28;20279;-76
2023/05/27 11:49:37;;;;;;;5.22;3.50;;;10.40;99.90;;;;;;4996527;28;20200;-76
2023/05/27 11:52:09;;;;;;;4.40;2.65;;;10.30;99.90;;;;;;4996325;28;20184;-76
2023/05/27 11:54:42;;;;;;;5.85;2.88;;;10.30;99.90;;;;;;4995634;28;20211;-76
2023/05/27 11:57:13;;;;;;;4.35;2.78;;;10.20;99.90;;;;;;4990533;28;20208;-76
2023/05/27 11:59:44;;;;;;;4.07;2.38;;;10.20;99.90;;;;;;4976571;28;20235;-76
2023/05/27 12:02:17;;;;;;;3.70;2.80;;;10.20;99.90;;;;;;4976774;28;20206;-76
2023/05/27 12:04:48;;;;;;;3.83;2.50;;;10.20;99.90;;;;;;4978016;28;20192;-76
2023/05/27 12:07:19;;;;;;;7.47;3.30;;;10.20;99.90;;;;;;4995138;28;20204;-76
2023/05/27 12:09:51;;;;;;;8.02;4.68;;;10.20;99.90;;;;;;4995688;28;20191;-76
2023/05/27 12:12:23;;;;;;;8.55;5.18;;;10.20;99.90;;;;;;4995886;28;20223;-76
2023/05/27 12:14:55;;;;;;;6.97;4.93;;;10.10;99.90;;;;;;4984442;28;20290;-76
2023/05/27 12:17:28;;;;;;;8.43;5.00;;;10.20;99.90;;;;;;4977032;28;20543;-76
2023/05/27 12:19:59;;;;;;;7.53;4.35;;;10.10;99.90;;;;;;4995766;28;20214;-76
2023/05/27 12:22:30;;;;;;;5.80;3.47;;;10.20;99.90;;;;;;4995825;28;20635;-75
2023/05/27 12:25:01;;;;;;;6.30;3.78;;;10.20;99.90;;;;;;4994636;28;20204;-76
2023/05/27 12:27:32;;;;;;;7.47;3.95;;;10.20;99.90;;;;;;4993972;28;20207;-75
2023/05/27 12:30:03;;;;;;;6.00;3.67;;;10.10;99.90;;;;;;4987833;28;20200;-75
2023/05/27 12:32:36;;;;;;;6.20;3.85;;;10.20;99.90;;;;;;4992969;28;20313;-75
2023/05/27 12:35:08;;;;;;;7.13;4.07;;;10.10;99.90;;;;;;4993799;28;20203;-75
2023/05/27 12:37:39;;;;;;;8.82;4.32;;;10.10;99.90;;;;;;4992027;28;20254;-75
2023/05/27 12:40:14;;;;;;;7.78;4.18;;;10.10;99.90;;;;;;4985441;28;20196;-76
2023/05/27 12:42:45;;;;;;;6.75;3.97;;;10.10;99.90;;;;;;4994406;28;20655;-75
2023/05/27 12:45:16;;;;;;;5.53;3.72;;;10.00;99.90;;;;;;4994311;28;20403;-75
2023/05/27 12:47:49;;;;;;;7.22;4.00;;;10.00;99.90;;;;;;4993952;28;20206;-76
2023/05/27 12:50:20;;;;;;;4.88;3.35;;;9.90;99.90;;;;;;4993120;28;20196;-76
2023/05/27 12:52:52;;;;;;;6.38;3.40;;;9.90;99.90;;;;;;4995145;28;20198;-75
2023/05/27 12:55:24;;;;;;;4.38;3.28;;;9.90;99.90;;;;;;4994633;28;20199;-75
2023/05/27 12:57:55;;;;;;;6.35;3.28;;;9.80;99.90;;;;;;4981147;28;20346;-75
2023/05/27 13:00:27;;;;;;;5.57;3.17;;;9.80;99.90;;;;;;4994017;28;20212;-76
2023/05/27 13:03:00;;;;;;;5.55;3.30;;;9.80;99.90;;;;;;4992756;28;20214;-75
2023/05/27 13:05:31;;;;;;;5.00;3.05;;;9.80;99.90;;;;;;4993569;28;20218;-75
2023/05/27 13:08:04;;;;;;;6.93;3.10;;;9.80;99.90;;;;;;4992353;28;20192;-76
2023/05/27 13:10:35;;;;;;;6.32;3.40;;;9.80;99.90;;;;;;4991762;28;20287;-75
2023/05/27 13:13:06;;;;;;;6.78;3.15;;;9.80;99.90;;;;;;4993240;28;20223;-75